Time,TemperatureF,DewpointF,PressureIn,WindDirection,WindDirectionDegrees,WindSpeedMPH,WindSpeedGustMPH,Humidity,HourlyPrecipIn,Conditions,Clouds,dailyrainin,SoftwareType,DateUTC
2013-02-11 00:01:00,36.0,34.0,-100.00,WSW,253,2.0,5.0,92,-99.99,,,-99.99,,2013-02-11 08:01:00,
2013-02-11 00:11:00,36.0,34.0,-100.00,WNW,294,2.0,5.0,92,-99.99,,,-99.99,,2013-02-11 08:11:00,
2013-02-11 00:21:00,36.0,34.0,-100.00,West,280,2.0,7.0,91,-99.99,,,-99.99,,2013-02-11 08:21:00,
2013-02-11 00:31:00,36.0,34.0,-100.00,WSW,244,2.0,4.0,91,-99.99,,,-99.99,,2013-02-11 08:31:00,
2013-02-11 00:42:00,36.0,34.0,-100.00,SSW,210,3.0,5.0,91,-99.99,,,-99.99,,2013-02-11 08:42:00,
2013-02-11 00:52:00,36.0,34.0,-100.00,SW,225,3.0,5.0,91,-99.99,,,-99.99,,2013-02-11 08:52:00,
2013-02-11 01:01:00,36.0,33.0,-100.00,SW,236,2.0,5.0,90,-99.99,,,-99.99,,2013-02-11 09:01:00,
2013-02-11 01:12:00,35.0,32.0,-100.00,WNW,287,2.0,5.0,89,-99.99,,,-99.99,,2013-02-11 09:12:00,
2013-02-11 01:21:00,35.0,32.0,-100.00,NW,316,2.0,4.0,88,-99.99,,,-99.99,,2013-02-11 09:21:00,
2013-02-11 01:31:00,36.0,30.0,-100.00,WNW,295,5.0,9.0,80,-99.99,,,-99.99,,2013-02-11 09:31:00,
2013-02-11 01:41:00,36.0,30.0,-100.00,WNW,295,5.0,9.0,80,-99.99,,,-99.99,,2013-02-11 09:41:00,
2013-02-11 01:50:00,35.0,30.0,-100.00,WNW,297,3.0,8.0,83,-99.99,,,-99.99,,2013-02-11 09:50:00,
2013-02-11 01:51:00,35.0,30.0,-100.00,NW,316,3.0,8.0,81,-99.99,,,-99.99,,2013-02-11 09:51:00,
2013-02-11 02:01:00,34.0,30.0,-100.00,NW,325,2.0,4.0,84,-99.99,,,-99.99,,2013-02-11 10:01:00,
2013-02-11 02:11:00,34.0,30.0,-100.00,NW,306,1.0,5.0,84,-99.99,,,-99.99,,2013-02-11 10:11:00,
2013-02-11 02:21:00,35.0,30.0,-100.00,WNW,297,3.0,8.0,83,-99.99,,,-99.99,,2013-02-11 10:21:00,
2013-02-11 02:31:00,35.0,30.0,-100.00,WNW,297,3.0,8.0,83,-99.99,,,-99.99,,2013-02-11 10:31:00,
2013-02-11 02:41:00,35.0,30.0,-100.00,WNW,297,3.0,8.0,83,-99.99,,,-99.99,,2013-02-11 10:41:00,
2013-02-11 03:52:00,36.0,30.0,-100.00,WNW,303,3.0,6.0,80,-99.99,,,-99.99,,2013-02-11 11:52:00,
2013-02-11 04:03:00,34.0,29.0,-100.00,North,358,1.0,2.0,83,-99.99,,,-99.99,,2013-02-11 12:03:00,
2013-02-11 04:12:00,33.0,29.0,-100.00,NNE,30,3.0,6.0,86,-99.99,,,-99.99,,2013-02-11 12:12:00,
2013-02-11 04:22:00,31.0,28.0,-100.00,NE,45,4.0,8.0,89,-99.99,,,-99.99,,2013-02-11 12:22:00,
2013-02-11 04:31:00,31.0,28.0,-100.00,NE,54,4.0,7.0,90,-99.99,,,-99.99,,2013-02-11 12:31:00,
2013-02-11 04:42:00,29.0,26.0,-100.00,NE,48,6.0,10.0,90,-99.99,,,-99.99,,2013-02-11 12:42:00,
2013-02-11 04:52:00,29.0,27.0,-100.00,North,356,2.0,6.0,91,-99.99,,,-99.99,,2013-02-11 12:52:00,
2013-02-11 05:01:00,28.0,26.0,-100.00,North,352,2.0,5.0,92,-99.99,,,-99.99,,2013-02-11 13:01:00,
2013-02-11 05:11:00,28.0,26.0,-100.00,North,3,3.0,5.0,92,-99.99,,,-99.99,,2013-02-11 13:11:00,
2013-02-11 05:21:00,28.0,26.0,-100.00,NNE,24,3.0,6.0,92,-99.99,,,-99.99,,2013-02-11 13:21:00,
2013-02-11 05:32:00,28.0,26.0,-100.00,NNE,29,5.0,8.0,92,-99.99,,,-99.99,,2013-02-11 13:32:00,
2013-02-11 05:41:00,28.0,26.0,-100.00,NNE,13,4.0,6.0,91,-99.99,,,-99.99,,2013-02-11 13:41:00,
2013-02-11 05:51:00,27.0,24.0,-100.00,NNE,15,3.0,5.0,90,-99.99,,,-99.99,,2013-02-11 13:51:00,
2013-02-11 06:01:00,27.0,24.0,-100.00,NNE,15,3.0,5.0,90,-99.99,,,-99.99,,2013-02-11 14:01:00,
2013-02-11 06:11:00,27.0,25.0,-100.00,North,2,2.0,4.0,91,-99.99,,,-99.99,,2013-02-11 14:11:00,
2013-02-11 06:21:00,27.0,25.0,-100.00,North,10,2.0,4.0,91,-99.99,,,-99.99,,2013-02-11 14:21:00,
2013-02-11 06:32:00,27.0,25.0,-100.00,North,10,2.0,4.0,91,-99.99,,,-99.99,,2013-02-11 14:32:00,
2013-02-11 06:41:00,27.0,25.0,-100.00,NNE,16,1.0,1.0,91,-99.99,,,-99.99,,2013-02-11 14:41:00,
2013-02-11 06:52:00,26.0,24.0,-100.00,North,352,1.0,3.0,91,-99.99,,,-99.99,,2013-02-11 14:52:00,
2013-02-11 07:01:00,26.0,23.0,-100.00,North,11,1.0,3.0,90,-99.99,,,-99.99,,2013-02-11 15:01:00,
2013-02-11 07:11:00,26.0,23.0,-100.00,NNE,32,2.0,3.0,90,-99.99,,,-99.99,,2013-02-11 15:11:00,
2013-02-11 07:22:00,25.0,23.0,-100.00,SSW,197,1.0,2.0,91,-99.99,,,-99.99,,2013-02-11 15:22:00,
2013-02-11 07:31:00,25.0,23.0,-100.00,North,9,1.0,2.0,92,-99.99,,,-99.99,,2013-02-11 15:31:00,
2013-02-11 07:42:00,26.0,24.0,-100.00,NNW,339,1.0,3.0,92,-99.99,,,-99.99,,2013-02-11 15:42:00,
2013-02-11 07:51:00,28.0,25.0,-100.00,North,10,3.0,5.0,90,-99.99,,,-99.99,,2013-02-11 15:51:00,
2013-02-11 08:01:00,30.0,26.0,-100.00,ENE,66,2.0,3.0,85,-99.99,,,-99.99,,2013-02-11 16:01:00,
2013-02-11 08:11:00,30.0,26.0,-100.00,ENE,66,2.0,3.0,85,-99.99,,,-99.99,,2013-02-11 16:11:00,
2013-02-11 08:21:00,32.0,28.0,-100.00,East,100,1.0,2.0,84,-99.99,,,-99.99,,2013-02-11 16:21:00,
2013-02-11 08:31:00,33.0,28.0,-100.00,SE,138,1.0,2.0,82,-99.99,,,-99.99,,2013-02-11 16:31:00,
2013-02-11 08:42:00,33.0,28.0,-100.00,ENE,78,1.0,3.0,80,-99.99,,,-99.99,,2013-02-11 16:42:00,
2013-02-11 08:52:00,35.0,29.0,-100.00,ENE,71,2.0,4.0,77,-99.99,,,-99.99,,2013-02-11 16:52:00,
2013-02-11 09:01:00,35.0,29.0,-100.00,ENE,75,2.0,4.0,77,-99.99,,,-99.99,,2013-02-11 17:01:00,
2013-02-11 09:11:00,37.0,30.0,-100.00,East,90,1.0,3.0,77,-99.99,,,-99.99,,2013-02-11 17:11:00,
2013-02-11 09:21:00,37.0,30.0,-100.00,SE,124,2.0,4.0,77,-99.99,,,-99.99,,2013-02-11 17:21:00,
2013-02-11 09:31:00,38.0,31.0,-100.00,South,171,3.0,7.0,77,-99.99,,,-99.99,,2013-02-11 17:31:00,
2013-02-11 09:41:00,38.0,31.0,-100.00,SSE,167,3.0,5.0,77,-99.99,,,-99.99,,2013-02-11 17:41:00,
2013-02-11 09:52:00,39.0,30.0,-100.00,SSE,168,1.0,3.0,70,-99.99,,,-99.99,,2013-02-11 17:52:00,
2013-02-11 10:01:00,40.0,30.0,-100.00,SW,232,2.0,3.0,67,-99.99,,,-99.99,,2013-02-11 18:01:00,
2013-02-11 10:11:00,41.0,31.0,-100.00,SSW,192,2.0,7.0,67,-99.99,,,-99.99,,2013-02-11 18:11:00,
2013-02-11 10:21:00,41.0,31.0,-100.00,SSE,165,4.0,8.0,66,-99.99,,,-99.99,,2013-02-11 18:21:00,
2013-02-11 10:31:00,42.0,30.0,-100.00,SSE,163,3.0,7.0,61,-99.99,,,-99.99,,2013-02-11 18:31:00,
2013-02-11 10:41:00,42.0,30.0,-100.00,SSW,192,3.0,9.0,61,-99.99,,,-99.99,,2013-02-11 18:41:00,
2013-02-11 10:50:00,44.0,28.0,-100.00,SW,231,3.0,7.0,53,-99.99,,,-99.99,,2013-02-11 18:50:00,
2013-02-11 10:52:00,42.0,30.0,-100.00,SSW,207,3.0,9.0,61,-99.99,,,-99.99,,2013-02-11 18:52:00,
2013-02-11 11:01:00,43.0,30.0,-100.00,SSW,202,4.0,8.0,59,-99.99,,,-99.99,,2013-02-11 19:01:00,
2013-02-11 11:11:00,43.0,27.0,-100.00,SSW,193,4.0,8.0,53,-99.99,,,-99.99,,2013-02-11 19:11:00,
2013-02-11 11:21:00,44.0,28.0,-100.00,SW,231,3.0,7.0,53,-99.99,,,-99.99,,2013-02-11 19:21:00,
2013-02-11 11:31:00,44.0,28.0,-100.00,SW,231,3.0,7.0,53,-99.99,,,-99.99,,2013-02-11 19:31:00,
2013-02-11 11:41:00,44.0,28.0,-100.00,SW,231,3.0,7.0,53,-99.99,,,-99.99,,2013-02-11 19:41:00,
2013-02-11 12:01:00,45.0,29.0,-100.00,South,181,5.0,11.0,53,-99.99,,,-99.99,,2013-02-11 20:01:00,
2013-02-11 12:11:00,45.0,27.0,-100.00,SSE,161,5.0,9.0,49,-99.99,,,-99.99,,2013-02-11 20:11:00,
2013-02-11 12:21:00,45.0,27.0,-100.00,SE,140,4.0,10.0,48,-99.99,,,-99.99,,2013-02-11 20:21:00,
2013-02-11 12:31:00,45.0,27.0,-100.00,South,185,6.0,11.0,50,-99.99,,,-99.99,,2013-02-11 20:31:00,
2013-02-11 12:41:00,46.0,27.0,-100.00,SSE,168,5.0,12.0,48,-99.99,,,-99.99,,2013-02-11 20:41:00,
2013-02-11 12:52:00,46.0,27.0,-100.00,SSE,148,5.0,11.0,47,-99.99,,,-99.99,,2013-02-11 20:52:00,
2013-02-11 13:02:00,45.0,27.0,-100.00,ESE,122,4.0,10.0,50,-99.99,,,-99.99,,2013-02-11 21:02:00,
2013-02-11 13:11:00,44.0,25.0,-100.00,NE,42,7.0,11.0,46,-99.99,,,-99.99,,2013-02-11 21:11:00,
2013-02-11 13:21:00,44.0,25.0,-100.00,ENE,68,8.0,13.0,46,-99.99,,,-99.99,,2013-02-11 21:21:00,
2013-02-11 13:31:00,43.0,23.0,-100.00,NE,52,10.0,15.0,45,-99.99,,,-99.99,,2013-02-11 21:31:00,
2013-02-11 13:41:00,42.0,23.0,-100.00,NE,51,11.0,16.0,47,-99.99,,,-99.99,,2013-02-11 21:41:00,
2013-02-11 13:51:00,41.0,25.0,-100.00,NE,52,11.0,16.0,53,-99.99,,,-99.99,,2013-02-11 21:51:00,
2013-02-11 14:01:00,41.0,26.0,-100.00,NE,44,10.0,15.0,54,-99.99,,,-99.99,,2013-02-11 22:01:00,
2013-02-11 14:11:00,41.0,26.0,-100.00,NE,56,8.0,12.0,54,-99.99,,,-99.99,,2013-02-11 22:11:00,
2013-02-11 14:21:00,41.0,25.0,-100.00,NE,49,7.0,11.0,52,-99.99,,,-99.99,,2013-02-11 22:21:00,
2013-02-11 14:31:00,42.0,25.0,-100.00,NE,51,4.0,8.0,51,-99.99,,,-99.99,,2013-02-11 22:31:00,
2013-02-11 14:41:00,42.0,24.0,-100.00,SSE,152,2.0,4.0,49,-99.99,,,-99.99,,2013-02-11 22:41:00,
2013-02-11 14:52:00,43.0,23.0,-100.00,SE,133,4.0,6.0,45,-99.99,,,-99.99,,2013-02-11 22:52:00,
2013-02-11 15:01:00,43.0,22.0,-100.00,ESE,116,2.0,9.0,42,-99.99,,,-99.99,,2013-02-11 23:01:00,
2013-02-11 15:11:00,44.0,21.0,-100.00,East,94,7.0,11.0,39,-99.99,,,-99.99,,2013-02-11 23:11:00,
2013-02-11 15:21:00,44.0,21.0,-100.00,NE,41,5.0,10.0,40,-99.99,,,-99.99,,2013-02-11 23:21:00,
2013-02-11 15:31:00,44.0,21.0,-100.00,NNE,18,4.0,7.0,40,-99.99,,,-99.99,,2013-02-11 23:31:00,
2013-02-11 15:41:00,44.0,22.0,-100.00,North,350,4.0,7.0,41,-99.99,,,-99.99,,2013-02-11 23:41:00,
2013-02-11 15:52:00,44.0,18.0,-100.00,NE,53,6.0,12.0,35,-99.99,,,-99.99,,2013-02-11 23:52:00,
2013-02-11 16:01:00,44.0,18.0,-100.00,NE,53,6.0,12.0,35,-99.99,,,-99.99,,2013-02-12 00:01:00,
2013-02-11 16:11:00,45.0,19.0,-100.00,ENE,73,6.0,10.0,35,-99.99,,,-99.99,,2013-02-12 00:11:00,
2013-02-11 16:21:00,45.0,18.0,-100.00,East,84,6.0,11.0,34,-99.99,,,-99.99,,2013-02-12 00:21:00,
2013-02-11 16:31:00,45.0,18.0,-100.00,ENE,78,7.0,13.0,33,-99.99,,,-99.99,,2013-02-12 00:31:00,
2013-02-11 16:41:00,45.0,17.0,-100.00,NE,56,8.0,13.0,32,-99.99,,,-99.99,,2013-02-12 00:41:00,
2013-02-11 16:51:00,45.0,17.0,-100.00,ENE,67,8.0,14.0,32,-99.99,,,-99.99,,2013-02-12 00:51:00,
2013-02-11 17:01:00,45.0,16.0,-100.00,ENE,73,8.0,12.0,31,-99.99,,,-99.99,,2013-02-12 01:01:00,
2013-02-11 17:11:00,44.0,16.0,-100.00,ENE,78,5.0,8.0,32,-99.99,,,-99.99,,2013-02-12 01:11:00,
2013-02-11 17:21:00,44.0,16.0,-100.00,East,82,3.0,6.0,32,-99.99,,,-99.99,,2013-02-12 01:21:00,
2013-02-11 17:31:00,44.0,15.0,-100.00,ENE,71,2.0,3.0,31,-99.99,,,-99.99,,2013-02-12 01:31:00,
2013-02-11 17:41:00,42.0,16.0,-100.00,North,9,2.0,5.0,35,-99.99,,,-99.99,,2013-02-12 01:41:00,
2013-02-11 17:51:00,42.0,16.0,-100.00,NNE,22,4.0,7.0,34,-99.99,,,-99.99,,2013-02-12 01:51:00,
2013-02-11 18:01:00,41.0,15.0,-100.00,NNE,20,5.0,7.0,35,-99.99,,,-99.99,,2013-02-12 02:01:00,
2013-02-11 18:11:00,39.0,18.0,-100.00,North,3,3.0,6.0,42,-99.99,,,-99.99,,2013-02-12 02:11:00,
2013-02-11 18:21:00,38.0,19.0,-100.00,NNE,19,1.0,3.0,45,-99.99,,,-99.99,,2013-02-12 02:21:00,
2013-02-11 18:31:00,37.0,19.0,-100.00,NW,325,2.0,3.0,47,-99.99,,,-99.99,,2013-02-12 02:31:00,
2013-02-11 18:41:00,37.0,19.0,-100.00,North,354,2.0,4.0,47,-99.99,,,-99.99,,2013-02-12 02:41:00,
2013-02-11 18:52:00,36.0,19.0,-100.00,North,10,2.0,3.0,50,-99.99,,,-99.99,,2013-02-12 02:52:00,
2013-02-11 19:01:00,35.0,19.0,-100.00,NNE,18,2.0,4.0,52,-99.99,,,-99.99,,2013-02-12 03:01:00,
2013-02-11 19:11:00,34.0,19.0,-100.00,North,5,2.0,4.0,54,-99.99,,,-99.99,,2013-02-12 03:11:00,
2013-02-11 19:21:00,34.0,19.0,-100.00,NE,55,6.0,9.0,54,-99.99,,,-99.99,,2013-02-12 03:21:00,
2013-02-11 19:31:00,34.0,18.0,-100.00,NE,38,5.0,7.0,52,-99.99,,,-99.99,,2013-02-12 03:31:00,
2013-02-11 19:41:00,34.0,19.0,-100.00,NNE,29,4.0,7.0,53,-99.99,,,-99.99,,2013-02-12 03:41:00,
2013-02-11 19:51:00,33.0,19.0,-100.00,North,9,1.0,3.0,56,-99.99,,,-99.99,,2013-02-12 03:51:00,
2013-02-11 20:01:00,32.0,18.0,-100.00,NE,53,5.0,8.0,56,-99.99,,,-99.99,,2013-02-12 04:01:00,
2013-02-11 20:11:00,32.0,18.0,-100.00,WNW,302,2.0,5.0,56,-99.99,,,-99.99,,2013-02-12 04:11:00,
2013-02-11 20:21:00,32.0,17.0,-100.00,NNW,330,3.0,4.0,54,-99.99,,,-99.99,,2013-02-12 04:21:00,
2013-02-11 20:31:00,32.0,17.0,-100.00,NNW,330,3.0,4.0,54,-99.99,,,-99.99,,2013-02-12 04:31:00,
2013-02-11 20:41:00,30.0,18.0,-100.00,SSW,201,1.0,4.0,60,-99.99,,,-99.99,,2013-02-12 04:41:00,
2013-02-11 20:51:00,29.0,19.0,-100.00,NE,48,1.0,3.0,65,-99.99,,,-99.99,,2013-02-12 04:51:00,
2013-02-11 21:01:00,29.0,19.0,-100.00,West,266,2.0,4.0,66,-99.99,,,-99.99,,2013-02-12 05:01:00,
2013-02-11 21:11:00,29.0,19.0,-100.00,NNW,343,3.0,4.0,65,-99.99,,,-99.99,,2013-02-12 05:11:00,
2013-02-11 21:21:00,31.0,17.0,-100.00,WNW,297,1.0,2.0,56,-99.99,,,-99.99,,2013-02-12 05:21:00,
2013-02-11 21:31:00,30.0,17.0,-100.00,SW,223,2.0,4.0,58,-99.99,,,-99.99,,2013-02-12 05:31:00,
2013-02-11 21:41:00,29.0,16.0,-100.00,NW,316,1.0,3.0,58,-99.99,,,-99.99,,2013-02-12 05:41:00,
2013-02-11 21:52:00,28.0,17.0,-100.00,West,280,1.0,1.0,62,-99.99,,,-99.99,,2013-02-12 05:52:00,
2013-02-11 22:01:00,28.0,17.0,-100.00,NNW,346,2.0,4.0,62,-99.99,,,-99.99,,2013-02-12 06:01:00,
2013-02-11 22:12:00,29.0,16.0,-100.00,North,2,2.0,3.0,57,-99.99,,,-99.99,,2013-02-12 06:12:00,
2013-02-11 22:21:00,29.0,15.0,-100.00,NNW,337,2.0,4.0,55,-99.99,,,-99.99,,2013-02-12 06:21:00,
2013-02-11 22:31:00,29.0,15.0,-100.00,NNW,337,2.0,4.0,55,-99.99,,,-99.99,,2013-02-12 06:31:00,
2013-02-11 22:42:00,29.0,14.0,-100.00,NNW,335,2.0,3.0,54,-99.99,,,-99.99,,2013-02-12 06:42:00,
2013-02-11 22:51:00,29.0,15.0,-100.00,North,8,3.0,5.0,55,-99.99,,,-99.99,,2013-02-12 06:51:00,
2013-02-11 23:01:00,28.0,15.0,-100.00,NNW,339,2.0,3.0,57,-99.99,,,-99.99,,2013-02-12 07:01:00,
2013-02-11 23:11:00,27.0,15.0,-100.00,NNE,19,2.0,3.0,60,-99.99,,,-99.99,,2013-02-12 07:11:00,
2013-02-11 23:21:00,27.0,15.0,-100.00,North,355,2.0,4.0,60,-99.99,,,-99.99,,2013-02-12 07:21:00,
2013-02-11 23:31:00,27.0,15.0,-100.00,NE,34,3.0,7.0,61,-99.99,,,-99.99,,2013-02-12 07:31:00,
2013-02-11 23:41:00,26.0,16.0,-100.00,NNW,333,2.0,5.0,64,-99.99,,,-99.99,,2013-02-12 07:41:00,
2013-02-11 23:51:00,26.0,14.0,-100.00,North,1,3.0,5.0,61,-99.99,,,-99.99,,2013-02-12 07:51:00,